createdAt,value
2022-12-16T00:02:21.639Z,5.20
2022-12-16T00:04:52.587Z,5.40
2022-12-16T00:07:25.025Z,5.40
2022-12-16T00:09:55.932Z,5.50
2022-12-16T00:12:27.123Z,5.50
2022-12-16T00:14:58.020Z,6.00
2022-12-16T00:17:28.954Z,5.80
2022-12-16T00:20:00.161Z,5.60
2022-12-16T00:22:31.220Z,5.70
2022-12-16T00:25:02.142Z,5.50
2022-12-16T00:27:33.056Z,5.50
2022-12-16T00:30:04.620Z,5.70
2022-12-16T00:32:35.543Z,5.70
2022-12-16T00:35:06.799Z,5.80
2022-12-16T00:37:37.724Z,6.00
2022-12-16T00:40:09.734Z,6.10
2022-12-16T00:42:40.681Z,6.00
2022-12-16T00:45:11.780Z,5.80
2022-12-16T00:47:44.042Z,5.80
2022-12-16T00:50:15.104Z,5.60
2022-12-16T00:52:47.337Z,5.70
2022-12-16T00:55:18.930Z,5.70
2022-12-16T00:57:49.863Z,5.70
2022-12-16T01:00:23.760Z,5.80
2022-12-16T01:02:54.773Z,5.90
2022-12-16T01:05:27.009Z,5.50
2022-12-16T01:07:58.090Z,5.70
2022-12-16T01:10:29.257Z,5.50
2022-12-16T01:13:00.272Z,5.30
2022-12-16T01:15:31.146Z,5.20
2022-12-16T01:18:02.055Z,5.30
2022-12-16T01:20:34.493Z,5.60
2022-12-16T01:23:05.612Z,5.40
2022-12-16T01:25:36.653Z,5.70
2022-12-16T01:28:07.568Z,6.00
2022-12-16T01:30:39.548Z,6.00
2022-12-16T01:33:11.112Z,5.70
2022-12-16T01:35:54.765Z,5.30
2022-12-16T01:38:26.636Z,5.50
2022-12-16T01:40:58.108Z,5.70
2022-12-16T01:43:34.822Z,5.50
2022-12-16T01:46:15.120Z,5.30
2022-12-16T01:49:04.131Z,5.40
2022-12-16T01:51:50.515Z,5.20
2022-12-16T01:54:29.947Z,4.70
2022-12-16T01:57:20.245Z,4.50
2022-12-16T01:59:54.227Z,4.70
2022-12-16T02:02:25.644Z,4.30
2022-12-16T02:05:14.981Z,4.30
2022-12-16T02:08:04.382Z,4.40
2022-12-16T02:10:44.359Z,5.10
2022-12-16T02:13:55.333Z,4.80
2022-12-16T02:16:45.717Z,5.30
2022-12-16T02:19:59.684Z,5.60
2022-12-16T02:22:54.647Z,5.30
2022-12-16T02:25:47.158Z,5.10
2022-12-16T02:29:00.687Z,5.50
2022-12-16T02:32:09.988Z,5.50
2022-12-16T02:35:17.755Z,5.60
2022-12-16T02:38:31.710Z,5.60
2022-12-16T02:41:07.504Z,5.60
2022-12-16T02:44:06.428Z,5.30
2022-12-16T02:46:53.473Z,5.40
2022-12-16T02:49:26.442Z,5.50
2022-12-16T02:52:00.892Z,5.60
2022-12-16T02:54:31.857Z,5.40
2022-12-16T02:57:49.402Z,5.50
2022-12-16T03:00:23.292Z,5.40
2022-12-16T03:03:09.768Z,5.50
2022-12-16T03:05:48.259Z,5.50
2022-12-16T03:08:30.360Z,5.60
2022-12-16T03:11:05.416Z,5.80
2022-12-16T03:13:53.239Z,5.10
2022-12-16T03:16:30.837Z,4.50
2022-12-16T03:19:08.345Z,4.60
2022-12-16T03:21:50.217Z,4.60
2022-12-16T03:24:21.820Z,4.40
2022-12-16T03:27:07.366Z,4.80
2022-12-16T03:29:50.127Z,4.90
2022-12-16T03:32:31.896Z,4.60
2022-12-16T03:35:19.917Z,4.60
2022-12-16T03:37:55.465Z,4.50
2022-12-16T03:40:28.545Z,4.50
2022-12-16T03:43:01.767Z,4.60
2022-12-16T03:45:42.132Z,4.20
2022-12-16T03:48:14.119Z,4.50
2022-12-16T03:50:45.024Z,4.70
2022-12-16T03:53:15.950Z,4.40
2022-12-16T03:55:46.870Z,5.40
2022-12-16T03:58:18.046Z,5.40
2022-12-16T04:00:48.994Z,5.40
2022-12-16T04:03:22.850Z,5.20
2022-12-16T04:05:54.530Z,5.20
2022-12-16T04:08:25.417Z,5.20
2022-12-16T04:11:14.681Z,5.30
2022-12-16T04:14:04.212Z,5.20
2022-12-16T04:16:53.553Z,5.20
2022-12-16T04:19:53.649Z,5.40
2022-12-16T04:22:55.764Z,5.30
2022-12-16T04:25:32.152Z,5.70
2022-12-16T04:28:03.576Z,5.10
2022-12-16T04:30:37.126Z,5.50
2022-12-16T04:33:33.708Z,5.40
2022-12-16T04:36:23.744Z,5.30
2022-12-16T04:39:13.360Z,5.40
2022-12-16T04:42:03.088Z,5.50
2022-12-16T04:45:15.573Z,5.70
2022-12-16T04:48:49.799Z,5.70
2022-12-16T04:51:39.056Z,5.50
2022-12-16T04:54:28.724Z,5.40
2022-12-16T04:57:19.095Z,5.30
2022-12-16T05:00:10.220Z,5.40
2022-12-16T05:02:59.712Z,5.30
2022-12-16T05:06:02.923Z,5.50
2022-12-16T05:08:52.326Z,5.40
2022-12-16T05:11:41.853Z,5.30
2022-12-16T05:14:31.056Z,5.10
2022-12-16T05:17:20.389Z,5.50
2022-12-16T05:20:09.923Z,5.70
2022-12-16T05:22:59.759Z,6.00
2022-12-16T05:25:49.591Z,5.90
2022-12-16T05:28:38.731Z,6.00
2022-12-16T05:31:28.408Z,5.40
2022-12-16T05:34:17.635Z,5.80
2022-12-16T05:37:07.203Z,5.50
2022-12-16T05:39:56.675Z,5.40
2022-12-16T05:42:46.109Z,5.10
2022-12-16T05:45:35.480Z,5.20
2022-12-16T05:48:24.931Z,5.20
2022-12-16T05:51:14.372Z,5.50
2022-12-16T05:54:03.944Z,5.50
2022-12-16T05:56:53.650Z,5.80
2022-12-16T05:59:43.322Z,5.60
2022-12-16T06:02:32.891Z,5.30
2022-12-16T06:05:22.767Z,5.40
2022-12-16T06:11:16.190Z,5.60
2022-12-16T06:14:08.272Z,5.20
2022-12-16T06:17:00.534Z,5.10
2022-12-16T06:19:50.086Z,5.30
2022-12-16T06:22:39.523Z,5.60
2022-12-16T06:25:28.765Z,5.80
2022-12-16T06:28:18.287Z,5.80
2022-12-16T06:31:08.141Z,5.70
2022-12-16T06:33:57.643Z,5.90
2022-12-16T06:36:47.163Z,5.60
2022-12-16T06:39:36.465Z,5.50
2022-12-16T06:42:26.212Z,5.60
2022-12-16T06:45:15.753Z,5.50
2022-12-16T06:48:05.242Z,5.60
2022-12-16T06:50:55.683Z,5.80
2022-12-16T06:53:45.067Z,6.10
2022-12-16T06:56:34.241Z,5.70
2022-12-16T06:59:23.796Z,6.10
2022-12-16T07:02:13.101Z,5.80
2022-12-16T07:05:06.940Z,5.80
2022-12-16T07:07:56.358Z,5.70
2022-12-16T07:10:45.860Z,5.40
2022-12-16T07:13:35.471Z,5.60
2022-12-16T07:16:25.337Z,5.60
2022-12-16T07:19:14.506Z,5.60
2022-12-16T07:22:09.187Z,5.70
2022-12-16T07:24:58.370Z,5.00
2022-12-16T07:27:47.990Z,4.90
2022-12-16T07:30:54.000Z,5.40
2022-12-16T07:33:43.679Z,5.60
2022-12-16T07:36:33.273Z,5.60
2022-12-16T07:39:22.577Z,5.30
2022-12-16T07:42:11.892Z,5.60
2022-12-16T07:45:01.051Z,5.50
2022-12-16T07:47:50.430Z,5.70
2022-12-16T07:50:40.349Z,5.60
2022-12-16T07:53:31.527Z,5.50
2022-12-16T07:56:21.201Z,5.50
2022-12-16T07:59:10.785Z,5.50
2022-12-16T08:02:00.614Z,5.60
2022-12-16T08:04:49.888Z,5.80
2022-12-16T08:07:39.554Z,7.70
2022-12-16T08:10:29.195Z,7.60
2022-12-16T08:13:25.814Z,8.40
2022-12-16T08:16:15.670Z,8.30
2022-12-16T08:19:11.176Z,7.00
2022-12-16T08:22:00.902Z,6.50
2022-12-16T08:24:53.534Z,6.30
2022-12-16T08:27:45.728Z,6.20
2022-12-16T08:30:35.264Z,6.20
2022-12-16T08:33:24.777Z,6.20
2022-12-16T08:36:17.650Z,5.90
2022-12-16T08:39:06.918Z,5.80
2022-12-16T08:41:56.501Z,6.10
2022-12-16T08:44:46.275Z,6.00
2022-12-16T08:47:35.559Z,5.80
2022-12-16T08:50:25.899Z,5.90
2022-12-16T08:53:15.081Z,5.60
2022-12-16T08:56:04.451Z,5.50
2022-12-16T08:58:54.245Z,5.80
2022-12-16T09:01:45.052Z,5.80
2022-12-16T09:04:34.270Z,5.70
2022-12-16T09:07:23.485Z,5.50
2022-12-16T09:10:12.964Z,5.50
2022-12-16T09:13:02.461Z,5.90
2022-12-16T09:15:52.064Z,5.70
2022-12-16T09:18:41.594Z,4.90
2022-12-16T09:21:33.330Z,5.00
2022-12-16T09:24:23.526Z,5.30
2022-12-16T09:27:13.123Z,5.20
2022-12-16T09:30:02.351Z,5.20
2022-12-16T09:32:51.538Z,5.10
2022-12-16T09:35:41.109Z,4.90
2022-12-16T09:38:30.666Z,5.30
2022-12-16T09:41:50.540Z,5.60
2022-12-16T09:45:21.729Z,5.90
2022-12-16T09:48:44.699Z,6.20
2022-12-16T09:51:35.620Z,5.80
2022-12-16T09:54:31.317Z,5.80
2022-12-16T09:57:25.542Z,6.10
2022-12-16T10:00:22.485Z,6.10
2022-12-16T10:03:14.261Z,6.10
2022-12-16T10:06:20.245Z,6.10
2022-12-16T10:09:45.625Z,6.20
2022-12-16T10:12:55.710Z,6.00
2022-12-16T10:16:18.542Z,6.10
2022-12-16T10:19:46.927Z,6.10
2022-12-16T10:22:59.444Z,6.20
2022-12-16T10:26:09.622Z,6.00
2022-12-16T10:29:07.404Z,6.30
2022-12-16T10:31:57.924Z,6.20
2022-12-16T10:34:53.419Z,6.20
2022-12-16T10:37:55.510Z,6.10
2022-12-16T10:40:50.480Z,6.40
2022-12-16T10:43:58.943Z,6.10
2022-12-16T10:46:53.875Z,5.50
2022-12-16T10:49:43.525Z,6.10
2022-12-16T10:52:32.794Z,5.90
2022-12-16T10:55:43.508Z,5.90
2022-12-16T10:59:04.479Z,5.90
2022-12-16T11:01:55.355Z,6.00
2022-12-16T11:04:56.262Z,5.80
2022-12-16T11:07:55.647Z,6.20
2022-12-16T11:10:59.127Z,6.30
2022-12-16T11:13:52.121Z,6.00
2022-12-16T11:16:46.579Z,6.60
2022-12-16T11:19:47.990Z,6.20
2022-12-16T11:22:42.626Z,6.40
2022-12-16T11:25:35.647Z,6.20
2022-12-16T11:28:35.582Z,6.20
2022-12-16T11:31:35.460Z,5.70
2022-12-16T11:34:25.060Z,5.40
2022-12-16T11:37:20.997Z,4.90
2022-12-16T11:40:10.983Z,4.90
2022-12-16T11:43:08.527Z,5.90
2022-12-16T11:46:01.041Z,6.20
2022-12-16T11:49:25.896Z,6.40
2022-12-16T11:59:08.229Z,6.40
2022-12-16T12:02:26.191Z,6.70
2022-12-16T12:05:16.106Z,6.40
2022-12-16T12:08:23.595Z,6.60
2022-12-16T12:11:43.198Z,6.70
2022-12-16T12:14:59.244Z,6.20
2022-12-16T12:18:03.632Z,7.00
2022-12-16T12:21:45.074Z,6.50
2022-12-16T12:25:12.054Z,6.50
2022-12-16T12:28:24.593Z,6.30
2022-12-16T12:31:26.186Z,6.80
2022-12-16T12:34:44.258Z,6.60
2022-12-16T12:37:53.521Z,6.30
2022-12-16T12:41:11.167Z,6.50
2022-12-16T12:44:11.304Z,6.50
2022-12-16T12:47:18.221Z,6.80
2022-12-16T12:50:40.901Z,6.10
2022-12-16T12:54:05.860Z,6.40
2022-12-16T12:57:08.103Z,6.10
2022-12-16T13:00:21.425Z,6.50
2022-12-16T13:03:52.557Z,6.30
2022-12-16T13:06:43.491Z,6.70
2022-12-16T13:09:50.948Z,6.40
2022-12-16T13:12:51.864Z,6.70
2022-12-16T13:15:59.670Z,6.70
2022-12-16T13:18:51.161Z,6.50
2022-12-16T13:21:57.265Z,6.10
2022-12-16T13:25:07.246Z,6.30
2022-12-16T13:28:14.699Z,6.70
2022-12-16T13:31:25.702Z,6.10
2022-12-16T13:34:26.297Z,6.60
2022-12-16T13:37:22.953Z,6.60
2022-12-16T13:40:30.613Z,6.20
2022-12-16T13:43:23.698Z,6.10
2022-12-16T13:46:16.264Z,6.70
2022-12-16T13:49:05.550Z,6.40
2022-12-16T13:51:57.658Z,6.70
2022-12-16T13:55:08.295Z,6.30
2022-12-16T13:58:02.239Z,6.60
2022-12-16T14:00:55.786Z,6.40
2022-12-16T14:04:06.262Z,6.40
2022-12-16T14:07:00.574Z,6.40
2022-12-16T14:09:57.631Z,6.50
2022-12-16T14:13:01.502Z,6.40
2022-12-16T14:16:29.692Z,6.40
2022-12-16T14:19:53.488Z,6.50
2022-12-16T14:26:47.266Z,6.20
2022-12-16T14:29:48.365Z,6.50
2022-12-16T14:32:52.191Z,6.30
2022-12-16T14:35:45.447Z,5.80
2022-12-16T14:38:46.782Z,5.80
2022-12-16T14:41:41.695Z,6.10
2022-12-16T14:44:43.258Z,6.20
2022-12-16T14:47:39.880Z,6.30
2022-12-16T14:51:01.840Z,6.00
2022-12-16T14:53:51.286Z,6.40
2022-12-16T14:56:42.304Z,6.20
2022-12-16T14:59:38.136Z,6.30
2022-12-16T15:02:59.278Z,6.70
2022-12-16T15:05:53.202Z,6.50
2022-12-16T15:08:45.685Z,6.10
2022-12-16T15:11:38.409Z,6.50
2022-12-16T15:14:36.137Z,6.10
2022-12-16T15:17:25.972Z,6.20
2022-12-16T15:20:15.387Z,6.40
2022-12-16T15:23:07.666Z,6.20
2022-12-16T15:26:03.674Z,6.20
2022-12-16T15:28:53.230Z,5.90
2022-12-16T15:31:55.961Z,6.20
2022-12-16T15:35:09.399Z,6.20
2022-12-16T15:38:04.586Z,6.30
2022-12-16T15:40:59.204Z,6.10
2022-12-16T15:43:57.291Z,6.10
2022-12-16T15:46:49.582Z,6.20
2022-12-16T15:50:03.480Z,6.00
2022-12-16T15:53:01.905Z,6.10
2022-12-16T15:56:04.246Z,6.00
2022-12-16T15:58:55.961Z,5.80
2022-12-16T16:01:47.033Z,5.90
2022-12-16T16:04:43.281Z,5.90
2022-12-16T16:07:40.308Z,6.10
2022-12-16T16:10:36.239Z,6.00
2022-12-16T16:13:26.669Z,6.10
2022-12-16T16:16:16.571Z,5.70
2022-12-16T16:19:05.967Z,5.80
2022-12-16T16:21:55.433Z,5.80
2022-12-16T16:24:46.406Z,5.60
2022-12-16T16:27:37.640Z,5.70
2022-12-16T16:30:29.940Z,5.40
2022-12-16T16:33:19.539Z,5.70
2022-12-16T16:36:09.042Z,5.80
2022-12-16T16:38:58.350Z,5.70
2022-12-16T16:41:47.930Z,6.00
2022-12-16T16:44:37.352Z,6.00
2022-12-16T16:47:35.909Z,5.90
2022-12-16T16:50:28.726Z,5.90
2022-12-16T16:53:18.207Z,5.90
2022-12-16T16:56:19.820Z,6.00
2022-12-16T16:59:09.490Z,6.30
2022-12-16T17:01:59.174Z,5.90
2022-12-16T17:04:48.642Z,5.80
2022-12-16T17:07:38.044Z,6.30
2022-12-16T17:10:28.660Z,5.70
2022-12-16T17:13:18.125Z,5.70
2022-12-16T17:16:07.380Z,5.60
2022-12-16T17:19:17.207Z,4.90
2022-12-16T17:22:06.827Z,5.40
2022-12-16T17:24:56.446Z,5.40
2022-12-16T17:27:47.154Z,5.70
2022-12-16T17:30:47.272Z,5.60
2022-12-16T17:33:37.512Z,5.80
2022-12-16T17:36:37.149Z,5.60
2022-12-16T17:39:28.359Z,6.00
2022-12-16T17:42:17.753Z,5.60
2022-12-16T17:45:07.111Z,5.70
2022-12-16T17:47:56.757Z,5.80
2022-12-16T17:50:45.892Z,6.00
2022-12-16T17:53:38.130Z,5.90
2022-12-16T17:56:27.700Z,5.50
2022-12-16T17:59:17.926Z,5.50
2022-12-16T18:02:07.913Z,5.70
2022-12-16T18:04:57.470Z,5.70
2022-12-16T18:07:46.781Z,5.60
2022-12-16T18:10:38.825Z,5.50
2022-12-16T18:13:33.284Z,5.20
2022-12-16T18:16:23.279Z,5.30
2022-12-16T18:19:12.954Z,5.70
2022-12-16T18:22:02.687Z,5.60
2022-12-16T18:24:52.628Z,5.60
2022-12-16T18:27:42.360Z,5.50
2022-12-16T18:30:32.548Z,5.60
2022-12-16T18:33:22.486Z,5.80
2022-12-16T18:36:12.004Z,5.60
2022-12-16T18:39:01.379Z,5.80
2022-12-16T18:41:50.777Z,5.70
2022-12-16T18:44:41.379Z,5.80
2022-12-16T18:47:33.028Z,5.90
2022-12-16T18:50:28.651Z,6.00
2022-12-16T18:53:20.588Z,6.20
2022-12-16T18:56:28.660Z,6.30
2022-12-16T18:59:18.600Z,6.00
2022-12-16T19:02:07.967Z,6.00
2022-12-16T19:04:58.208Z,4.80
2022-12-16T19:07:47.715Z,4.80
2022-12-16T19:10:37.209Z,5.40
2022-12-16T19:13:32.955Z,5.90
2022-12-16T19:16:22.796Z,5.90
2022-12-16T19:19:17.930Z,5.10
2022-12-16T19:22:09.085Z,4.90
2022-12-16T19:24:58.570Z,5.40
2022-12-16T19:27:47.989Z,5.30
2022-12-16T19:30:37.453Z,5.20
2022-12-16T19:33:26.855Z,4.90
2022-12-16T19:36:16.195Z,4.70
2022-12-16T19:39:05.661Z,4.80
2022-12-16T19:41:56.284Z,4.70
2022-12-16T19:44:45.823Z,4.50
2022-12-16T19:47:35.188Z,5.20
2022-12-16T19:50:25.768Z,5.90
2022-12-16T19:53:15.449Z,5.90
2022-12-16T19:56:05.150Z,5.60
2022-12-16T19:58:56.294Z,5.70
2022-12-16T20:01:46.042Z,5.80
2022-12-16T20:04:35.357Z,5.50
2022-12-16T20:07:24.595Z,5.80
2022-12-16T20:10:14.203Z,5.70
2022-12-16T20:13:03.601Z,5.70
2022-12-16T20:15:53.195Z,5.80
2022-12-16T20:18:45.919Z,5.70
2022-12-16T20:21:35.198Z,5.50
2022-12-16T20:24:25.147Z,5.50
2022-12-16T20:27:14.284Z,5.00
2022-12-16T20:30:03.578Z,5.40
2022-12-16T20:32:53.488Z,5.20
2022-12-16T20:35:46.107Z,5.40
2022-12-16T20:38:35.735Z,5.30
2022-12-16T20:41:27.335Z,5.30
2022-12-16T20:44:16.669Z,4.90
2022-12-16T20:47:06.188Z,5.30
2022-12-16T20:49:56.119Z,4.80
2022-12-16T20:52:56.603Z,4.90
2022-12-16T20:55:46.201Z,5.40
2022-12-16T20:58:37.429Z,5.70
2022-12-16T21:01:37.376Z,6.00
2022-12-16T21:04:27.138Z,5.80
2022-12-16T21:07:16.992Z,5.90
2022-12-16T21:10:06.430Z,6.10
2022-12-16T21:12:55.960Z,6.10
2022-12-16T21:15:47.460Z,6.10
2022-12-16T21:18:37.200Z,5.10
2022-12-16T21:21:26.378Z,5.40
2022-12-16T21:24:15.743Z,5.50
2022-12-16T21:27:05.180Z,5.50
2022-12-16T21:29:54.624Z,5.80
2022-12-16T21:32:45.429Z,5.70
2022-12-16T21:35:35.109Z,5.90
2022-12-16T21:38:31.966Z,5.80
2022-12-16T21:41:21.332Z,5.90
2022-12-16T21:44:10.792Z,5.60
2022-12-16T21:47:00.392Z,5.40
2022-12-16T21:49:49.898Z,5.30
2022-12-16T21:52:39.339Z,5.30
2022-12-16T21:55:30.263Z,5.20
2022-12-16T21:58:19.829Z,5.30
2022-12-16T22:01:14.537Z,5.30
2022-12-16T22:04:03.834Z,5.10
2022-12-16T22:06:53.768Z,5.10
2022-12-16T22:09:43.206Z,5.00
2022-12-16T22:12:33.035Z,5.20
2022-12-16T22:15:23.472Z,5.10
2022-12-16T22:18:12.960Z,4.90
2022-12-16T22:21:02.276Z,5.00
2022-12-16T22:23:51.836Z,4.90
2022-12-16T22:26:41.343Z,5.00
2022-12-16T22:29:31.024Z,4.90
2022-12-16T22:32:20.621Z,4.80
2022-12-16T22:35:10.053Z,4.80
2022-12-16T22:37:59.724Z,4.70
2022-12-16T22:40:48.916Z,4.50
2022-12-16T22:43:38.445Z,4.50
2022-12-16T22:46:28.097Z,4.50
2022-12-16T22:49:17.817Z,4.30
2022-12-16T22:52:07.260Z,4.10
2022-12-16T22:54:59.697Z,4.00
2022-12-16T22:57:50.843Z,3.80
2022-12-16T23:00:40.262Z,3.30
2022-12-16T23:03:35.462Z,3.20
2022-12-16T23:06:24.721Z,3.00
2022-12-16T23:09:14.130Z,3.10
2022-12-16T23:12:03.667Z,2.80
2022-12-16T23:14:55.144Z,2.70
2022-12-16T23:17:46.008Z,2.60
2022-12-16T23:20:35.814Z,2.70
2022-12-16T23:23:24.876Z,2.70
2022-12-16T23:26:16.902Z,2.80
2022-12-16T23:29:12.350Z,2.40
2022-12-16T23:32:01.554Z,2.30
2022-12-16T23:34:50.997Z,2.20
2022-12-16T23:37:40.569Z,2.20
2022-12-16T23:40:30.532Z,2.00
2022-12-16T23:43:19.696Z,2.00
2022-12-16T23:46:09.198Z,1.90
2022-12-16T23:48:59.015Z,2.00
2022-12-16T23:51:48.355Z,2.10
2022-12-16T23:54:37.713Z,1.70
2022-12-16T23:57:27.054Z,1.70
